createdAt,value
2018-12-09T00:01:27.637Z,7.30
2018-12-09T00:03:55.103Z,7.30
2018-12-09T00:06:22.503Z,7.20
2018-12-09T00:08:49.907Z,7.20
2018-12-09T00:11:17.402Z,7.20
2018-12-09T00:13:44.784Z,7.20
2018-12-09T00:16:12.216Z,7.10
2018-12-09T00:18:39.604Z,7.10
2018-12-09T00:21:07.179Z,7.10
2018-12-09T00:23:34.678Z,7.10
2018-12-09T00:26:02.089Z,7.10
2018-12-09T00:28:29.611Z,7.10
2018-12-09T00:30:57.036Z,7.10
2018-12-09T00:33:24.438Z,7.20
2018-12-09T00:35:51.853Z,7.10
2018-12-09T00:38:19.255Z,7.10
2018-12-09T00:40:46.738Z,7.10
2018-12-09T00:43:14.168Z,7.10
2018-12-09T00:45:41.576Z,7.10
2018-12-09T00:48:08.990Z,7.10
2018-12-09T00:50:36.390Z,7.10
2018-12-09T00:53:03.797Z,7.10
2018-12-09T00:55:31.219Z,7.10
2018-12-09T00:57:58.807Z,7.10
2018-12-09T01:00:26.183Z,7.10
2018-12-09T01:02:53.581Z,7.10
2018-12-09T01:05:21.050Z,7.10
2018-12-09T01:07:48.473Z,7.10
2018-12-09T01:10:15.944Z,7.10
2018-12-09T01:12:43.384Z,7.20
2018-12-09T01:15:10.825Z,7.20
2018-12-09T01:17:38.368Z,7.20
2018-12-09T01:20:06.488Z,7.20
2018-12-09T01:22:33.950Z,7.20
2018-12-09T01:25:01.349Z,7.20
2018-12-09T01:27:28.747Z,7.20
2018-12-09T01:29:57.058Z,7.20
2018-12-09T01:32:24.723Z,7.20
2018-12-09T01:34:52.136Z,7.30
2018-12-09T01:37:19.650Z,7.30
2018-12-09T01:39:47.702Z,7.30
2018-12-09T01:42:15.117Z,7.30
2018-12-09T01:44:42.719Z,7.30
2018-12-09T01:47:10.166Z,7.30
2018-12-09T01:49:37.967Z,7.30
2018-12-09T01:52:05.683Z,7.30
2018-12-09T01:54:33.363Z,7.30
2018-12-09T01:57:01.139Z,7.30
2018-12-09T01:59:28.642Z,7.30
2018-12-09T02:01:56.052Z,7.30
2018-12-09T02:04:23.504Z,7.30
2018-12-09T02:06:50.920Z,7.30
2018-12-09T02:09:18.431Z,7.30
2018-12-09T02:11:45.893Z,7.30
2018-12-09T02:14:13.647Z,7.30
2018-12-09T02:16:41.094Z,7.30
2018-12-09T02:19:14.514Z,7.30
2018-12-09T02:21:42.253Z,7.30
2018-12-09T02:24:09.674Z,7.40
2018-12-09T02:26:37.185Z,7.40
2018-12-09T02:29:04.647Z,7.40
2018-12-09T02:31:32.050Z,7.50
2018-12-09T02:33:59.557Z,7.50
2018-12-09T02:36:27.140Z,7.50
2018-12-09T02:38:54.581Z,7.60
2018-12-09T02:41:22.267Z,7.60
2018-12-09T02:43:49.792Z,7.60
2018-12-09T02:46:17.201Z,7.60
2018-12-09T02:48:44.768Z,7.60
2018-12-09T02:51:12.263Z,7.70
2018-12-09T02:53:39.710Z,7.70
2018-12-09T02:56:07.197Z,7.70
2018-12-09T02:58:34.732Z,7.70
2018-12-09T03:01:02.761Z,7.70
2018-12-09T03:03:30.178Z,7.70
2018-12-09T03:05:57.684Z,7.70
2018-12-09T03:08:25.281Z,7.70
2018-12-09T03:10:52.770Z,7.70
2018-12-09T03:13:20.468Z,7.70
2018-12-09T03:15:48.019Z,7.80
2018-12-09T03:18:15.458Z,7.80
2018-12-09T03:20:42.857Z,7.80
2018-12-09T03:23:10.472Z,7.90
2018-12-09T03:25:38.218Z,7.90
2018-12-09T03:28:05.696Z,8.00
2018-12-09T03:30:33.199Z,8.00
2018-12-09T03:33:00.809Z,8.00
2018-12-09T03:35:28.353Z,8.10
2018-12-09T03:37:55.863Z,8.10
2018-12-09T03:40:23.764Z,8.10
2018-12-09T03:42:51.241Z,8.20
2018-12-09T03:45:18.702Z,8.20
2018-12-09T03:47:46.121Z,8.20
2018-12-09T03:50:14.304Z,8.20
2018-12-09T03:52:41.720Z,8.20
2018-12-09T03:55:09.112Z,8.20
2018-12-09T03:57:36.710Z,8.20
2018-12-09T04:00:04.881Z,8.10
2018-12-09T04:02:32.459Z,8.10
2018-12-09T04:04:59.894Z,8.10
2018-12-09T04:07:27.301Z,8.10
2018-12-09T04:09:54.963Z,8.00
2018-12-09T04:12:22.374Z,8.00
2018-12-09T04:14:50.116Z,8.00
2018-12-09T04:17:17.521Z,8.00
2018-12-09T04:19:45.029Z,8.00
2018-12-09T04:22:12.437Z,8.00
2018-12-09T04:24:39.868Z,8.00
2018-12-09T04:27:07.623Z,7.90
2018-12-09T04:29:35.041Z,8.00
2018-12-09T04:32:02.530Z,8.00
2018-12-09T04:34:29.945Z,8.10
2018-12-09T04:36:57.374Z,8.10
2018-12-09T04:39:25.045Z,8.10
2018-12-09T04:41:52.505Z,8.10
2018-12-09T04:44:20.065Z,8.10
2018-12-09T04:46:47.494Z,8.20
2018-12-09T04:49:15.060Z,8.20
2018-12-09T04:51:48.389Z,8.20
2018-12-09T04:54:15.813Z,8.30
2018-12-09T04:56:43.332Z,8.30
2018-12-09T04:59:27.124Z,8.40
2018-12-09T05:01:55.565Z,8.40
2018-12-09T05:04:23.118Z,8.40
2018-12-09T05:06:50.675Z,8.40
2018-12-09T05:09:18.281Z,8.40
2018-12-09T05:11:45.742Z,8.40
2018-12-09T05:14:13.294Z,8.40
2018-12-09T05:16:40.744Z,8.40
2018-12-09T05:19:08.284Z,8.40
2018-12-09T05:21:35.899Z,8.40
2018-12-09T05:24:03.405Z,8.40
2018-12-09T05:26:30.800Z,8.40
2018-12-09T05:28:58.318Z,8.50
2018-12-09T05:31:25.713Z,8.50
2018-12-09T05:33:53.792Z,8.50
2018-12-09T05:36:21.285Z,8.50
2018-12-09T05:38:48.805Z,8.50
2018-12-09T05:41:16.329Z,8.50
2018-12-09T05:43:43.736Z,8.50
2018-12-09T05:46:11.145Z,8.40
2018-12-09T05:48:38.557Z,8.30
2018-12-09T05:51:05.953Z,8.30
2018-12-09T05:53:33.358Z,8.30
2018-12-09T05:56:00.913Z,8.20
2018-12-09T05:58:29.462Z,8.20
2018-12-09T06:00:56.859Z,8.10
2018-12-09T06:03:24.398Z,8.10
2018-12-09T06:05:51.944Z,8.10
2018-12-09T06:08:19.942Z,8.10
2018-12-09T06:10:47.499Z,8.20
2018-12-09T06:13:15.784Z,8.20
2018-12-09T06:15:45.189Z,8.20
2018-12-09T06:18:12.671Z,8.20
2018-12-09T06:20:40.204Z,8.20
2018-12-09T06:23:07.657Z,8.20
2018-12-09T06:25:35.181Z,8.20
2018-12-09T06:28:02.937Z,8.20
2018-12-09T06:30:30.541Z,8.10
2018-12-09T06:32:57.944Z,8.00
2018-12-09T06:35:25.348Z,7.90
2018-12-09T06:37:52.773Z,7.80
2018-12-09T06:40:20.685Z,7.70
2018-12-09T06:42:48.114Z,7.60
2018-12-09T06:45:16.108Z,7.60
2018-12-09T06:47:43.840Z,7.50
2018-12-09T06:50:11.736Z,7.40
2018-12-09T06:52:39.693Z,7.40
2018-12-09T06:55:08.141Z,7.40
2018-12-09T06:57:35.704Z,7.40
2018-12-09T07:00:03.733Z,7.30
2018-12-09T07:02:31.405Z,7.30
2018-12-09T07:04:58.805Z,7.30
2018-12-09T07:07:27.639Z,7.30
2018-12-09T07:09:55.524Z,7.20
2018-12-09T07:12:22.996Z,7.20
2018-12-09T07:14:50.508Z,7.20
2018-12-09T07:17:17.952Z,7.20
2018-12-09T07:19:45.533Z,7.20
2018-12-09T07:22:12.985Z,7.20
2018-12-09T07:24:40.513Z,7.20
2018-12-09T07:27:07.952Z,7.20
2018-12-09T07:29:35.469Z,7.20
2018-12-09T07:32:03.222Z,7.10
2018-12-09T07:34:30.750Z,7.20
2018-12-09T07:36:58.216Z,7.20
2018-12-09T07:39:25.693Z,7.20
2018-12-09T07:41:53.157Z,7.20
2018-12-09T07:44:20.596Z,7.20
2018-12-09T07:46:47.989Z,7.20
2018-12-09T07:49:15.461Z,7.20
2018-12-09T07:51:42.881Z,7.30
2018-12-09T07:54:10.276Z,7.30
2018-12-09T07:56:37.872Z,7.30
2018-12-09T07:59:07.376Z,7.40
2018-12-09T08:01:34.815Z,7.40
2018-12-09T08:04:02.236Z,7.40
2018-12-09T08:06:29.781Z,7.40
2018-12-09T08:08:57.309Z,7.40
2018-12-09T08:11:24.868Z,7.40
2018-12-09T08:13:52.336Z,7.40
2018-12-09T08:16:19.885Z,7.40
2018-12-09T08:18:47.469Z,7.40
2018-12-09T08:21:14.994Z,7.30
2018-12-09T08:23:42.479Z,7.30
2018-12-09T08:26:10.025Z,7.20
2018-12-09T08:28:37.413Z,7.20
2018-12-09T08:31:04.816Z,7.20
2018-12-09T08:33:32.240Z,7.10
2018-12-09T08:35:59.725Z,7.20
2018-12-09T08:38:27.124Z,7.20
2018-12-09T08:40:54.536Z,7.20
2018-12-09T08:43:21.922Z,7.20
2018-12-09T08:45:49.380Z,7.20
2018-12-09T08:48:17.272Z,7.20
2018-12-09T08:50:44.834Z,7.20
2018-12-09T08:53:12.249Z,7.30
2018-12-09T08:55:39.652Z,7.30
2018-12-09T08:58:07.284Z,7.30
2018-12-09T09:00:34.700Z,7.40
2018-12-09T09:03:02.096Z,7.40
2018-12-09T09:05:29.586Z,7.40
2018-12-09T09:07:57.064Z,7.40
2018-12-09T09:10:24.502Z,7.40
2018-12-09T09:12:51.901Z,7.50
2018-12-09T09:15:19.320Z,7.50
2018-12-09T09:17:46.721Z,7.50
2018-12-09T09:20:14.233Z,7.50
2018-12-09T09:22:42.457Z,7.50
2018-12-09T09:25:09.877Z,7.50
2018-12-09T09:27:37.389Z,7.50
2018-12-09T09:30:05.018Z,7.50
2018-12-09T09:32:32.526Z,7.50
2018-12-09T09:35:00.154Z,7.50
2018-12-09T09:37:27.649Z,7.60
2018-12-09T09:39:55.080Z,7.60
2018-12-09T09:42:22.569Z,7.60
2018-12-09T09:44:50.020Z,7.60
2018-12-09T09:47:18.218Z,7.60
2018-12-09T09:49:45.669Z,7.70
2018-12-09T09:52:13.142Z,7.70
2018-12-09T09:54:40.524Z,7.70
2018-12-09T09:57:08.048Z,7.60
2018-12-09T09:59:35.566Z,7.60
2018-12-09T10:02:03.536Z,7.60
2018-12-09T10:04:30.959Z,7.60
2018-12-09T10:07:04.180Z,7.60
2018-12-09T10:09:31.661Z,7.70
2018-12-09T10:11:59.140Z,7.80
2018-12-09T10:14:26.673Z,7.80
2018-12-09T10:16:54.117Z,7.90
2018-12-09T10:19:22.329Z,7.90
2018-12-09T10:21:49.741Z,8.00
2018-12-09T10:24:17.277Z,8.10
2018-12-09T10:26:44.794Z,8.20
2018-12-09T10:29:12.211Z,8.30
2018-12-09T10:31:39.616Z,8.40
2018-12-09T10:34:07.080Z,8.40
2018-12-09T10:36:34.600Z,8.30
2018-12-09T10:39:02.404Z,8.30
2018-12-09T10:41:29.893Z,8.30
2018-12-09T10:43:57.401Z,8.30
2018-12-09T10:46:24.948Z,8.30
2018-12-09T10:48:52.416Z,8.40
2018-12-09T10:51:20.841Z,8.30
2018-12-09T10:53:48.417Z,8.30
2018-12-09T10:56:15.864Z,8.30
2018-12-09T10:58:43.372Z,8.20
2018-12-09T11:02:18.131Z,8.10
2018-12-09T11:04:45.768Z,8.10
2018-12-09T11:07:13.189Z,8.00
2018-12-09T11:09:40.583Z,7.90
2018-12-09T11:12:08.032Z,7.90
2018-12-09T11:14:35.437Z,8.00
2018-12-09T11:17:02.922Z,8.00
2018-12-09T11:19:30.323Z,8.10
2018-12-09T11:21:57.759Z,8.10
2018-12-09T11:24:25.344Z,8.20
2018-12-09T11:26:52.938Z,8.20
2018-12-09T11:29:20.542Z,8.20
2018-12-09T11:31:47.996Z,8.30
2018-12-09T11:34:15.440Z,8.30
2018-12-09T11:36:43.012Z,8.40
2018-12-09T11:39:10.448Z,8.40
2018-12-09T11:41:38.056Z,8.50
2018-12-09T11:44:06.156Z,8.50
2018-12-09T11:46:33.828Z,8.50
2018-12-09T11:49:01.324Z,8.40
2018-12-09T11:51:28.949Z,8.40
2018-12-09T11:53:56.783Z,8.40
2018-12-09T11:56:24.508Z,8.30
2018-12-09T11:58:52.694Z,8.30
2018-12-09T12:01:20.451Z,8.40
2018-12-09T12:03:47.991Z,8.40
2018-12-09T12:06:15.769Z,8.40
2018-12-09T12:08:43.368Z,8.40
2018-12-09T12:11:11.327Z,8.50
2018-12-09T12:13:38.763Z,8.50
2018-12-09T12:16:06.165Z,8.40
2018-12-09T12:18:33.680Z,8.40
2018-12-09T12:21:01.087Z,8.30
2018-12-09T12:23:28.559Z,8.40
2018-12-09T12:25:56.129Z,8.40
2018-12-09T12:28:23.609Z,8.40
2018-12-09T12:30:51.129Z,8.40
2018-12-09T12:33:18.582Z,8.40
2018-12-09T12:35:46.502Z,8.40
2018-12-09T12:38:13.982Z,8.40
2018-12-09T12:40:41.432Z,8.40
2018-12-09T12:43:08.968Z,8.40
2018-12-09T12:45:36.418Z,8.50
2018-12-09T12:48:04.082Z,8.40
2018-12-09T12:50:31.605Z,8.50
2018-12-09T12:52:59.068Z,8.50
2018-12-09T12:55:26.524Z,8.50
2018-12-09T12:57:54.070Z,8.50
2018-12-09T13:00:21.708Z,8.50
2018-12-09T13:02:49.295Z,8.40
2018-12-09T13:08:00.766Z,8.40
2018-12-09T13:10:28.188Z,8.30
2018-12-09T13:12:55.724Z,8.30
2018-12-09T13:15:23.172Z,8.30
2018-12-09T13:17:56.357Z,8.30
2018-12-09T13:20:24.093Z,8.30
2018-12-09T13:22:51.566Z,8.30
2018-12-09T13:25:19.005Z,8.30
2018-12-09T13:27:47.563Z,8.20
2018-12-09T13:30:15.237Z,8.20
2018-12-09T13:32:42.814Z,8.20
2018-12-09T13:35:10.311Z,8.20
2018-12-09T13:37:37.796Z,8.20
2018-12-09T13:40:09.061Z,8.10
2018-12-09T13:42:37.454Z,8.10
2018-12-09T13:45:09.449Z,8.10
2018-12-09T13:47:39.355Z,8.10
2018-12-09T13:50:08.279Z,8.10
2018-12-09T13:52:36.346Z,8.10
2018-12-09T13:55:04.687Z,8.10
2018-12-09T13:57:32.565Z,8.10
2018-12-09T14:00:00.520Z,8.10
2018-12-09T14:02:28.606Z,8.10
2018-12-09T14:04:56.603Z,8.10
2018-12-09T14:07:24.380Z,8.20
2018-12-09T14:09:53.358Z,8.10
2018-12-09T14:12:21.965Z,8.20
2018-12-09T14:14:50.433Z,8.20
2018-12-09T14:17:18.327Z,8.20
2018-12-09T14:19:46.199Z,8.10
2018-12-09T14:22:17.583Z,8.20
2018-12-09T14:24:45.410Z,8.10
2018-12-09T14:27:13.444Z,8.10
2018-12-09T14:29:41.217Z,8.10
2018-12-09T14:32:09.509Z,8.10
2018-12-09T14:34:37.896Z,8.10
2018-12-09T14:37:06.682Z,8.10
2018-12-09T14:39:35.429Z,8.10
2018-12-09T14:42:03.825Z,8.10
2018-12-09T14:44:31.635Z,8.10
2018-12-09T14:47:04.511Z,8.10
2018-12-09T14:49:32.221Z,8.10
2018-12-09T14:51:59.861Z,8.10
2018-12-09T14:54:28.149Z,8.10
2018-12-09T14:56:55.818Z,8.10
2018-12-09T14:59:23.528Z,8.00
2018-12-09T15:01:51.934Z,8.00
2018-12-09T15:04:19.821Z,8.10
2018-12-09T15:06:47.502Z,8.00
2018-12-09T15:09:15.780Z,7.90
2018-12-09T15:11:43.773Z,7.90
2018-12-09T15:14:12.975Z,7.80
2018-12-09T15:16:40.982Z,7.80
2018-12-09T15:19:08.646Z,7.80
2018-12-09T15:21:36.576Z,7.70
2018-12-09T15:24:04.448Z,7.70
2018-12-09T15:26:32.229Z,7.60
2018-12-09T15:29:00.137Z,7.60
2018-12-09T15:31:28.540Z,7.60
2018-12-09T15:33:58.274Z,7.60
2018-12-09T15:36:25.958Z,7.60
2018-12-09T15:38:53.777Z,7.60
2018-12-09T15:41:21.831Z,7.60
2018-12-09T15:43:50.479Z,7.60
2018-12-09T15:46:20.919Z,7.60
2018-12-09T15:48:48.753Z,7.60
2018-12-09T15:51:17.748Z,7.70
2018-12-09T15:53:45.746Z,7.70
2018-12-09T15:56:13.493Z,7.80
2018-12-09T15:58:42.001Z,7.80
2018-12-09T16:01:09.831Z,7.80
2018-12-09T16:03:37.616Z,7.90
2018-12-09T16:06:05.713Z,7.90
2018-12-09T16:08:33.572Z,7.90
2018-12-09T16:11:01.291Z,7.90
2018-12-09T16:13:29.159Z,7.90
2018-12-09T16:15:57.250Z,7.90
2018-12-09T16:18:25.164Z,7.90
2018-12-09T16:20:54.960Z,7.90
2018-12-09T16:23:23.629Z,7.90
2018-12-09T16:25:51.786Z,7.90
2018-12-09T16:28:19.796Z,7.90
2018-12-09T16:30:51.389Z,7.90
2018-12-09T16:33:19.350Z,7.90
2018-12-09T16:35:47.670Z,7.80
2018-12-09T16:38:16.633Z,7.80
2018-12-09T16:40:44.310Z,7.70
2018-12-09T16:43:13.215Z,7.70
2018-12-09T16:45:42.032Z,7.70
2018-12-09T16:48:10.150Z,7.60
2018-12-09T16:50:38.096Z,7.60
2018-12-09T16:53:05.996Z,7.70
2018-12-09T16:55:34.075Z,7.70
2018-12-09T16:58:02.000Z,7.70
2018-12-09T17:00:34.324Z,7.70
2018-12-09T17:03:03.157Z,7.60
2018-12-09T17:05:30.998Z,7.60
2018-12-09T17:07:58.478Z,7.60
2018-12-09T17:10:26.146Z,7.60
2018-12-09T17:12:53.619Z,7.60
2018-12-09T17:15:21.089Z,7.60
2018-12-09T17:17:48.595Z,7.60
2018-12-09T17:20:16.069Z,7.70
2018-12-09T17:22:43.502Z,7.70
2018-12-09T17:25:10.942Z,7.70
2018-12-09T17:27:38.556Z,7.60
2018-12-09T17:30:06.364Z,7.60
2018-12-09T17:32:33.768Z,7.60
2018-12-09T17:35:01.338Z,7.50
2018-12-09T17:37:28.816Z,7.50
2018-12-09T17:39:56.225Z,7.50
2018-12-09T17:42:23.629Z,7.50
2018-12-09T17:44:51.153Z,7.50
2018-12-09T17:47:18.725Z,7.40
2018-12-09T17:49:46.177Z,7.40
2018-12-09T17:52:13.624Z,7.40
2018-12-09T17:54:41.028Z,7.40
2018-12-09T17:57:08.525Z,7.40
2018-12-09T17:59:36.013Z,7.40
2018-12-09T18:02:03.628Z,7.40
2018-12-09T18:04:31.034Z,7.40
2018-12-09T18:06:58.577Z,7.30
2018-12-09T18:09:26.576Z,7.40
2018-12-09T18:11:53.976Z,7.30
2018-12-09T18:14:21.409Z,7.30
2018-12-09T18:16:48.917Z,7.40
2018-12-09T18:19:16.412Z,7.30
2018-12-09T18:21:43.921Z,7.30
2018-12-09T18:24:11.504Z,7.30
2018-12-09T18:26:39.051Z,7.30
2018-12-09T18:29:06.461Z,7.30
2018-12-09T18:31:33.960Z,7.30
2018-12-09T18:34:01.377Z,7.30
2018-12-09T18:36:28.913Z,7.30
2018-12-09T18:38:56.480Z,7.30
2018-12-09T18:41:23.989Z,7.40
2018-12-09T18:43:51.410Z,7.30
2018-12-09T18:46:18.942Z,7.30
2018-12-09T18:48:46.524Z,7.30
2018-12-09T18:51:14.045Z,7.40
2018-12-09T18:53:41.601Z,7.50
2018-12-09T18:56:09.058Z,7.60
2018-12-09T18:58:36.465Z,7.60
2018-12-09T19:01:04.120Z,7.60
2018-12-09T19:03:31.488Z,7.50
2018-12-09T19:05:59.028Z,7.50
2018-12-09T19:08:27.817Z,7.50
2018-12-09T19:10:55.252Z,7.40
2018-12-09T19:13:22.651Z,7.40
2018-12-09T19:15:50.097Z,7.40
2018-12-09T19:18:17.497Z,7.40
2018-12-09T19:20:44.931Z,7.40
2018-12-09T19:23:12.332Z,7.40
2018-12-09T19:25:39.776Z,7.40
2018-12-09T19:28:07.185Z,7.40
2018-12-09T19:30:34.629Z,7.40
2018-12-09T19:33:02.025Z,7.40
2018-12-09T19:35:29.498Z,7.40
2018-12-09T19:37:56.908Z,7.40
2018-12-09T19:40:24.443Z,7.40
2018-12-09T19:42:51.867Z,7.40
2018-12-09T19:45:19.460Z,7.40
2018-12-09T19:47:46.900Z,7.40
2018-12-09T19:50:14.305Z,7.40
2018-12-09T19:52:41.739Z,7.40
2018-12-09T19:55:09.152Z,7.40
2018-12-09T19:57:36.603Z,7.40
2018-12-09T20:00:04.389Z,7.40
2018-12-09T20:02:31.941Z,7.40
2018-12-09T20:04:59.474Z,7.40
2018-12-09T20:07:27.120Z,7.40
2018-12-09T20:09:55.016Z,7.40
2018-12-09T20:12:22.491Z,7.30
2018-12-09T20:14:53.336Z,7.30
2018-12-09T20:17:20.820Z,7.30
2018-12-09T20:19:48.348Z,7.30
2018-12-09T20:22:15.798Z,7.30
2018-12-09T20:24:43.395Z,7.30
2018-12-09T20:27:10.919Z,7.30
2018-12-09T20:29:38.297Z,7.30
2018-12-09T20:32:05.837Z,7.30
2018-12-09T20:34:33.282Z,7.30
2018-12-09T20:37:01.428Z,7.30
2018-12-09T20:39:29.236Z,7.30
2018-12-09T20:41:56.788Z,7.30
2018-12-09T20:44:24.193Z,7.20
2018-12-09T20:46:51.705Z,7.20
2018-12-09T20:49:19.133Z,7.20
2018-12-09T20:51:46.616Z,7.20
2018-12-09T20:54:14.099Z,7.20
2018-12-09T20:56:41.650Z,7.20
2018-12-09T20:59:09.057Z,7.20
2018-12-09T21:01:36.600Z,7.20
2018-12-09T21:04:04.081Z,7.20
2018-12-09T21:06:31.676Z,7.20
2018-12-09T21:08:59.076Z,7.20
2018-12-09T21:11:26.563Z,7.20
2018-12-09T21:13:54.009Z,7.20
2018-12-09T21:16:21.452Z,7.20
2018-12-09T21:18:48.869Z,7.20
2018-12-09T21:21:16.362Z,7.10
2018-12-09T21:23:43.770Z,7.10
2018-12-09T21:26:11.209Z,7.10
2018-12-09T21:28:38.617Z,7.10
2018-12-09T21:31:06.046Z,7.10
2018-12-09T21:33:33.535Z,7.10
2018-12-09T21:36:01.061Z,7.00
2018-12-09T21:38:28.470Z,7.00
2018-12-09T21:40:55.918Z,7.00
2018-12-09T21:43:23.520Z,7.00
2018-12-09T21:45:51.001Z,7.00
2018-12-09T21:48:18.427Z,7.00
2018-12-09T21:50:45.956Z,7.00
2018-12-09T21:53:13.466Z,7.00
2018-12-09T21:55:40.890Z,6.90
2018-12-09T21:58:08.412Z,6.90
2018-12-09T22:00:35.902Z,6.90
2018-12-09T22:03:03.327Z,6.90
2018-12-09T22:05:31.088Z,6.90
2018-12-09T22:07:58.539Z,6.90
2018-12-09T22:10:26.263Z,6.90
2018-12-09T22:12:54.002Z,6.90
2018-12-09T22:15:21.515Z,6.90
2018-12-09T22:17:48.918Z,6.90
2018-12-09T22:20:16.385Z,6.90
2018-12-09T22:22:43.900Z,6.90
2018-12-09T22:25:11.347Z,6.90
2018-12-09T22:27:38.774Z,6.90
2018-12-09T22:30:06.165Z,6.90
2018-12-09T22:32:33.713Z,6.90
2018-12-09T22:35:01.150Z,6.90
2018-12-09T22:37:28.613Z,6.90
2018-12-09T22:39:56.070Z,6.90
2018-12-09T22:42:23.517Z,6.80
2018-12-09T22:44:51.173Z,6.90
2018-12-09T22:47:18.622Z,6.90
2018-12-09T22:49:46.053Z,6.90
2018-12-09T22:52:13.504Z,6.90
2018-12-09T22:54:41.104Z,6.80
2018-12-09T22:57:08.602Z,6.90
2018-12-09T22:59:36.020Z,6.90
2018-12-09T23:02:09.137Z,6.90
2018-12-09T23:04:36.601Z,6.80
2018-12-09T23:07:09.493Z,6.80
2018-12-09T23:09:36.916Z,6.80
2018-12-09T23:12:04.359Z,6.80
2018-12-09T23:14:32.512Z,6.80
2018-12-09T23:17:00.085Z,6.70
2018-12-09T23:19:27.549Z,6.70
2018-12-09T23:21:55.008Z,6.70
2018-12-09T23:24:22.438Z,6.70
2018-12-09T23:26:49.853Z,6.60
2018-12-09T23:29:17.261Z,6.60
2018-12-09T23:31:44.726Z,6.60
2018-12-09T23:34:12.132Z,6.60
2018-12-09T23:36:39.675Z,6.60
2018-12-09T23:39:07.116Z,6.50
2018-12-09T23:41:34.541Z,6.50
2018-12-09T23:44:01.932Z,6.40
2018-12-09T23:46:29.394Z,6.40
2018-12-09T23:48:56.747Z,6.30
2018-12-09T23:51:24.144Z,6.30
2018-12-09T23:53:51.565Z,6.30
2018-12-09T23:56:18.964Z,6.30
2018-12-09T23:58:46.371Z,6.30
